sensor_id;sensor_type;location;lat;lon;timestamp;P1;durP1;ratioP1;P2;durP2;ratioP2
1140;SDS011;559;48.628;8.924;2022-08-04T00:02:06;160.70;;;154.90;;
1140;SDS011;559;48.628;8.924;2022-08-04T00:04:37;159.20;;;153.70;;
1140;SDS011;559;48.628;8.924;2022-08-04T00:07:09;163.53;;;158.03;;
1140;SDS011;559;48.628;8.924;2022-08-04T00:09:43;167.07;;;161.37;;
1140;SDS011;559;48.628;8.924;2022-08-04T00:12:13;172.23;;;166.03;;
1140;SDS011;559;48.628;8.924;2022-08-04T00:14:45;173.30;;;166.70;;
1140;SDS011;559;48.628;8.924;2022-08-04T00:17:13;168.70;;;162.10;;
1140;SDS011;559;48.628;8.924;2022-08-04T00:19:40;165.00;;;158.27;;
1140;SDS011;559;48.628;8.924;2022-08-04T00:22:10;167.23;;;160.07;;
1140;SDS011;559;48.628;8.924;2022-08-04T00:24:39;162.47;;;155.57;;
1140;SDS011;559;48.628;8.924;2022-08-04T00:27:06;168.93;;;161.80;;
1140;SDS011;559;48.628;8.924;2022-08-04T00:29:35;166.83;;;159.37;;
1140;SDS011;559;48.628;8.924;2022-08-04T00:32:03;168.27;;;161.07;;
1140;SDS011;559;48.628;8.924;2022-08-04T00:34:32;166.87;;;159.57;;
1140;SDS011;559;48.628;8.924;2022-08-04T00:36:59;162.77;;;155.93;;
1140;SDS011;559;48.628;8.924;2022-08-04T00:39:27;161.30;;;154.60;;
1140;SDS011;559;48.628;8.924;2022-08-04T00:42:13;159.70;;;153.00;;
1140;SDS011;559;48.628;8.924;2022-08-04T00:45:10;161.90;;;155.30;;
1140;SDS011;559;48.628;8.924;2022-08-04T00:48:01;163.67;;;156.87;;
1140;SDS011;559;48.628;8.924;2022-08-04T00:50:34;165.30;;;158.00;;
1140;SDS011;559;48.628;8.924;2022-08-04T00:53:07;167.70;;;160.60;;
1140;SDS011;559;48.628;8.924;2022-08-04T00:55:44;161.17;;;154.17;;
1140;SDS011;559;48.628;8.924;2022-08-04T00:58:21;163.00;;;156.30;;
1140;SDS011;559;48.628;8.924;2022-08-04T01:00:57;160.70;;;154.03;;
1140;SDS011;559;48.628;8.924;2022-08-04T01:03:33;154.63;;;147.87;;
1140;SDS011;559;48.628;8.924;2022-08-04T01:06:08;166.27;;;159.17;;
1140;SDS011;559;48.628;8.924;2022-08-04T01:08:41;163.70;;;156.90;;
1140;SDS011;559;48.628;8.924;2022-08-04T01:11:18;169.03;;;162.17;;
1140;SDS011;559;48.628;8.924;2022-08-04T01:13:54;164.73;;;157.93;;
1140;SDS011;559;48.628;8.924;2022-08-04T01:16:25;161.27;;;154.60;;
1140;SDS011;559;48.628;8.924;2022-08-04T01:18:55;162.87;;;156.20;;
1140;SDS011;559;48.628;8.924;2022-08-04T01:24:28;165.80;;;158.97;;
1140;SDS011;559;48.628;8.924;2022-08-04T01:27:01;166.80;;;159.97;;
1140;SDS011;559;48.628;8.924;2022-08-04T01:29:32;164.47;;;157.83;;
1140;SDS011;559;48.628;8.924;2022-08-04T01:32:01;165.80;;;159.30;;
1140;SDS011;559;48.628;8.924;2022-08-04T01:34:30;163.53;;;156.53;;
1140;SDS011;559;48.628;8.924;2022-08-04T01:37:03;157.60;;;151.20;;
1140;SDS011;559;48.628;8.924;2022-08-04T01:39:34;161.37;;;154.77;;
1140;SDS011;559;48.628;8.924;2022-08-04T01:42:06;164.17;;;157.57;;
1140;SDS011;559;48.628;8.924;2022-08-04T01:44:36;160.90;;;154.40;;
1140;SDS011;559;48.628;8.924;2022-08-04T01:47:03;156.40;;;149.70;;
1140;SDS011;559;48.628;8.924;2022-08-04T01:49:30;155.47;;;148.80;;
1140;SDS011;559;48.628;8.924;2022-08-04T01:51:57;155.87;;;149.27;;
1140;SDS011;559;48.628;8.924;2022-08-04T01:54:24;152.40;;;145.97;;
1140;SDS011;559;48.628;8.924;2022-08-04T01:56:52;158.53;;;151.53;;
1140;SDS011;559;48.628;8.924;2022-08-04T01:59:19;159.70;;;153.10;;
1140;SDS011;559;48.628;8.924;2022-08-04T02:01:48;159.10;;;152.43;;
1140;SDS011;559;48.628;8.924;2022-08-04T02:04:15;160.40;;;153.67;;
1140;SDS011;559;48.628;8.924;2022-08-04T02:06:47;159.37;;;152.67;;
1140;SDS011;559;48.628;8.924;2022-08-04T02:09:16;157.73;;;151.00;;
1140;SDS011;559;48.628;8.924;2022-08-04T02:11:48;165.50;;;158.00;;
1140;SDS011;559;48.628;8.924;2022-08-04T02:14:24;156.67;;;149.70;;
1140;SDS011;559;48.628;8.924;2022-08-04T02:17:10;154.90;;;148.30;;
1140;SDS011;559;48.628;8.924;2022-08-04T02:19:41;154.33;;;147.63;;
1140;SDS011;559;48.628;8.924;2022-08-04T02:22:17;155.77;;;149.23;;
1140;SDS011;559;48.628;8.924;2022-08-04T02:24:45;156.07;;;149.47;;
1140;SDS011;559;48.628;8.924;2022-08-04T02:27:12;153.07;;;146.43;;
1140;SDS011;559;48.628;8.924;2022-08-04T02:29:42;157.43;;;150.77;;
1140;SDS011;559;48.628;8.924;2022-08-04T02:32:14;153.57;;;146.67;;
1140;SDS011;559;48.628;8.924;2022-08-04T02:34:46;156.10;;;149.40;;
1140;SDS011;559;48.628;8.924;2022-08-04T02:37:14;158.57;;;151.77;;
1140;SDS011;559;48.628;8.924;2022-08-04T02:39:43;153.00;;;146.40;;
1140;SDS011;559;48.628;8.924;2022-08-04T02:42:10;158.37;;;151.37;;
1140;SDS011;559;48.628;8.924;2022-08-04T02:44:38;155.63;;;148.90;;
1140;SDS011;559;48.628;8.924;2022-08-04T02:47:05;158.50;;;151.50;;
1140;SDS011;559;48.628;8.924;2022-08-04T02:49:35;157.00;;;150.10;;
1140;SDS011;559;48.628;8.924;2022-08-04T02:52:02;153.33;;;146.40;;
1140;SDS011;559;48.628;8.924;2022-08-04T02:54:30;157.48;;;149.93;;
1140;SDS011;559;48.628;8.924;2022-08-04T02:56:59;155.77;;;148.87;;
1140;SDS011;559;48.628;8.924;2022-08-04T02:59:26;152.00;;;145.30;;
1140;SDS011;559;48.628;8.924;2022-08-04T03:01:55;155.57;;;148.67;;
1140;SDS011;559;48.628;8.924;2022-08-04T03:04:26;153.53;;;146.77;;
1140;SDS011;559;48.628;8.924;2022-08-04T03:07:18;160.33;;;153.33;;
1140;SDS011;559;48.628;8.924;2022-08-04T03:12:54;159.07;;;151.67;;
1140;SDS011;559;48.628;8.924;2022-08-04T03:15:45;155.80;;;148.23;;
1140;SDS011;559;48.628;8.924;2022-08-04T03:21:47;155.70;;;147.50;;
1140;SDS011;559;48.628;8.924;2022-08-04T03:24:50;155.63;;;147.27;;
1140;SDS011;559;48.628;8.924;2022-08-04T03:30:57;152.40;;;144.23;;
1140;SDS011;559;48.628;8.924;2022-08-04T03:33:38;158.13;;;150.03;;
1140;SDS011;559;48.628;8.924;2022-08-04T03:42:26;156.70;;;148.70;;
1140;SDS011;559;48.628;8.924;2022-08-04T03:45:16;155.77;;;148.03;;
1140;SDS011;559;48.628;8.924;2022-08-04T03:48:11;145.57;;;138.07;;
1140;SDS011;559;48.628;8.924;2022-08-04T03:51:01;143.50;;;136.20;;
1140;SDS011;559;48.628;8.924;2022-08-04T03:54:01;149.90;;;142.33;;
1140;SDS011;559;48.628;8.924;2022-08-04T03:56:48;151.97;;;144.40;;
1140;SDS011;559;48.628;8.924;2022-08-04T03:59:23;145.43;;;138.23;;
1140;SDS011;559;48.628;8.924;2022-08-04T04:08:11;136.17;;;128.77;;
1140;SDS011;559;48.628;8.924;2022-08-04T04:10:57;133.67;;;126.47;;
1140;SDS011;559;48.628;8.924;2022-08-04T04:13:52;130.80;;;123.60;;
1140;SDS011;559;48.628;8.924;2022-08-04T04:16:27;131.87;;;124.77;;
1140;SDS011;559;48.628;8.924;2022-08-04T04:19:09;137.97;;;130.87;;
1140;SDS011;559;48.628;8.924;2022-08-04T04:22:21;140.70;;;133.63;;
1140;SDS011;559;48.628;8.924;2022-08-04T04:24:58;131.43;;;124.63;;
1140;SDS011;559;48.628;8.924;2022-08-04T04:27:35;131.00;;;124.07;;
1140;SDS011;559;48.628;8.924;2022-08-04T04:30:07;133.57;;;126.57;;
1140;SDS011;559;48.628;8.924;2022-08-04T04:32:42;132.73;;;125.97;;
1140;SDS011;559;48.628;8.924;2022-08-04T04:35:25;133.80;;;126.93;;
1140;SDS011;559;48.628;8.924;2022-08-04T04:38:03;130.37;;;123.43;;
1140;SDS011;559;48.628;8.924;2022-08-04T04:40:58;131.80;;;124.90;;
1140;SDS011;559;48.628;8.924;2022-08-04T04:43:45;138.37;;;130.90;;
1140;SDS011;559;48.628;8.924;2022-08-04T04:46:25;131.17;;;124.37;;
1140;SDS011;559;48.628;8.924;2022-08-04T04:49:00;132.53;;;125.63;;
1140;SDS011;559;48.628;8.924;2022-08-04T04:51:30;130.43;;;123.77;;
1140;SDS011;559;48.628;8.924;2022-08-04T04:54:03;128.17;;;121.23;;
1140;SDS011;559;48.628;8.924;2022-08-04T04:56:34;129.27;;;122.37;;
1140;SDS011;559;48.628;8.924;2022-08-04T04:59:04;128.30;;;121.50;;
1140;SDS011;559;48.628;8.924;2022-08-04T05:01:41;132.17;;;124.97;;
1140;SDS011;559;48.628;8.924;2022-08-04T05:04:35;134.43;;;126.13;;
1140;SDS011;559;48.628;8.924;2022-08-04T05:07:22;133.90;;;125.67;;
1140;SDS011;559;48.628;8.924;2022-08-04T05:10:20;135.40;;;128.17;;
1140;SDS011;559;48.628;8.924;2022-08-04T05:12:52;135.30;;;128.40;;
1140;SDS011;559;48.628;8.924;2022-08-04T05:15:29;132.87;;;125.77;;
1140;SDS011;559;48.628;8.924;2022-08-04T05:18:01;130.47;;;123.70;;
1140;SDS011;559;48.628;8.924;2022-08-04T05:20:32;136.97;;;130.23;;
1140;SDS011;559;48.628;8.924;2022-08-04T05:23:00;149.90;;;141.27;;
1140;SDS011;559;48.628;8.924;2022-08-04T05:25:30;130.73;;;124.03;;
1140;SDS011;559;48.628;8.924;2022-08-04T05:28:02;129.70;;;123.10;;
1140;SDS011;559;48.628;8.924;2022-08-04T05:30:31;133.37;;;126.87;;
1140;SDS011;559;48.628;8.924;2022-08-04T05:33:02;131.27;;;124.70;;
1140;SDS011;559;48.628;8.924;2022-08-04T05:35:30;129.73;;;123.43;;
1140;SDS011;559;48.628;8.924;2022-08-04T05:37:59;135.03;;;127.47;;
1140;SDS011;559;48.628;8.924;2022-08-04T05:40:28;133.73;;;124.23;;
1140;SDS011;559;48.628;8.924;2022-08-04T05:42:55;124.07;;;117.83;;
1140;SDS011;559;48.628;8.924;2022-08-04T05:45:22;126.73;;;120.53;;
1140;SDS011;559;48.628;8.924;2022-08-04T05:47:50;131.40;;;125.50;;
1140;SDS011;559;48.628;8.924;2022-08-04T05:50:19;127.80;;;121.43;;
1140;SDS011;559;48.628;8.924;2022-08-04T05:52:46;124.70;;;118.87;;
1140;SDS011;559;48.628;8.924;2022-08-04T05:55:13;123.47;;;117.87;;
1140;SDS011;559;48.628;8.924;2022-08-04T05:57:41;122.60;;;117.10;;
1140;SDS011;559;48.628;8.924;2022-08-04T06:00:08;122.63;;;117.13;;
1140;SDS011;559;48.628;8.924;2022-08-04T06:02:36;119.57;;;114.23;;
1140;SDS011;559;48.628;8.924;2022-08-04T06:05:03;121.70;;;116.30;;
1140;SDS011;559;48.628;8.924;2022-08-04T06:07:33;124.17;;;118.87;;
1140;SDS011;559;48.628;8.924;2022-08-04T06:09:59;122.93;;;117.83;;
1140;SDS011;559;48.628;8.924;2022-08-04T06:12:28;122.00;;;117.00;;
1140;SDS011;559;48.628;8.924;2022-08-04T06:14:58;121.67;;;116.67;;
1140;SDS011;559;48.628;8.924;2022-08-04T06:17:27;123.40;;;118.60;;
1140;SDS011;559;48.628;8.924;2022-08-04T06:19:56;122.57;;;117.77;;
1140;SDS011;559;48.628;8.924;2022-08-04T06:22:25;123.77;;;118.97;;
1140;SDS011;559;48.628;8.924;2022-08-04T06:24:54;126.70;;;121.90;;
1140;SDS011;559;48.628;8.924;2022-08-04T06:27:21;126.47;;;120.30;;
1140;SDS011;559;48.628;8.924;2022-08-04T06:29:48;122.57;;;117.70;;
1140;SDS011;559;48.628;8.924;2022-08-04T06:32:16;121.43;;;116.63;;
1140;SDS011;559;48.628;8.924;2022-08-04T06:34:51;120.20;;;115.80;;
1140;SDS011;559;48.628;8.924;2022-08-04T06:37:20;119.97;;;115.57;;
1140;SDS011;559;48.628;8.924;2022-08-04T06:39:47;122.57;;;117.87;;
1140;SDS011;559;48.628;8.924;2022-08-04T06:42:15;123.83;;;119.73;;
1140;SDS011;559;48.628;8.924;2022-08-04T06:44:42;117.40;;;113.60;;
1140;SDS011;559;48.628;8.924;2022-08-04T06:47:10;110.30;;;104.80;;
1140;SDS011;559;48.628;8.924;2022-08-04T06:49:37;116.20;;;112.40;;
1140;SDS011;559;48.628;8.924;2022-08-04T06:52:04;105.90;;;102.30;;
1140;SDS011;559;48.628;8.924;2022-08-04T06:54:31;96.57;;;93.77;;
1140;SDS011;559;48.628;8.924;2022-08-04T06:56:58;94.70;;;92.00;;
1140;SDS011;559;48.628;8.924;2022-08-04T06:59:27;94.30;;;91.47;;
1140;SDS011;559;48.628;8.924;2022-08-04T07:01:54;86.83;;;82.30;;
1140;SDS011;559;48.628;8.924;2022-08-04T07:04:21;52.87;;;51.03;;
1140;SDS011;559;48.628;8.924;2022-08-04T07:06:48;49.70;;;48.23;;
1140;SDS011;559;48.628;8.924;2022-08-04T07:09:14;30.20;;;29.00;;
1140;SDS011;559;48.628;8.924;2022-08-04T07:11:41;13.90;;;13.23;;
1140;SDS011;559;48.628;8.924;2022-08-04T07:14:07;14.13;;;13.60;;
1140;SDS011;559;48.628;8.924;2022-08-04T07:16:36;10.50;;;9.93;;
1140;SDS011;559;48.628;8.924;2022-08-04T07:19:05;6.60;;;6.30;;
1140;SDS011;559;48.628;8.924;2022-08-04T07:21:31;4.70;;;4.40;;
1140;SDS011;559;48.628;8.924;2022-08-04T07:24:00;3.47;;;3.27;;
1140;SDS011;559;48.628;8.924;2022-08-04T07:26:27;3.37;;;3.17;;
1140;SDS011;559;48.628;8.924;2022-08-04T07:28:53;4.10;;;3.07;;
1140;SDS011;559;48.628;8.924;2022-08-04T07:31:20;24.80;;;6.33;;
1140;SDS011;559;48.628;8.924;2022-08-04T07:33:49;6.47;;;3.77;;
1140;SDS011;559;48.628;8.924;2022-08-04T07:36:17;5.17;;;3.20;;
1140;SDS011;559;48.628;8.924;2022-08-04T07:38:44;5.33;;;3.57;;
1140;SDS011;559;48.628;8.924;2022-08-04T07:41:10;2.63;;;2.40;;
1140;SDS011;559;48.628;8.924;2022-08-04T07:43:37;5.47;;;2.75;;
1140;SDS011;559;48.628;8.924;2022-08-04T07:46:04;3.07;;;2.67;;
1140;SDS011;559;48.628;8.924;2022-08-04T07:48:31;19.33;;;3.57;;
1140;SDS011;559;48.628;8.924;2022-08-04T07:50:59;2.47;;;2.27;;
1140;SDS011;559;48.628;8.924;2022-08-04T07:53:26;2.43;;;2.23;;
1140;SDS011;559;48.628;8.924;2022-08-04T07:55:54;2.70;;;2.50;;
1140;SDS011;559;48.628;8.924;2022-08-04T07:58:21;2.20;;;1.80;;
1140;SDS011;559;48.628;8.924;2022-08-04T08:00:47;2.10;;;1.90;;
1140;SDS011;559;48.628;8.924;2022-08-04T08:03:14;3.47;;;1.97;;
1140;SDS011;559;48.628;8.924;2022-08-04T08:05:41;2.47;;;2.27;;
1140;SDS011;559;48.628;8.924;2022-08-04T08:08:09;5.20;;;2.20;;
1140;SDS011;559;48.628;8.924;2022-08-04T08:10:36;4.87;;;2.83;;
1140;SDS011;559;48.628;8.924;2022-08-04T08:13:04;2.10;;;1.90;;
1140;SDS011;559;48.628;8.924;2022-08-04T08:15:32;2.90;;;1.97;;
1140;SDS011;559;48.628;8.924;2022-08-04T08:17:59;8.97;;;3.60;;
1140;SDS011;559;48.628;8.924;2022-08-04T08:20:26;2.60;;;2.40;;
1140;SDS011;559;48.628;8.924;2022-08-04T08:22:53;1.90;;;1.63;;
1140;SDS011;559;48.628;8.924;2022-08-04T08:25:21;2.30;;;2.10;;
1140;SDS011;559;48.628;8.924;2022-08-04T08:27:48;1.90;;;1.80;;
1140;SDS011;559;48.628;8.924;2022-08-04T08:30:15;9.70;;;2.93;;
1140;SDS011;559;48.628;8.924;2022-08-04T08:32:41;2.80;;;2.30;;
1140;SDS011;559;48.628;8.924;2022-08-04T08:35:08;2.67;;;2.20;;
1140;SDS011;559;48.628;8.924;2022-08-04T08:37:36;4.00;;;2.13;;
1140;SDS011;559;48.628;8.924;2022-08-04T08:40:09;5.00;;;2.80;;
1140;SDS011;559;48.628;8.924;2022-08-04T08:42:51;5.20;;;2.70;;
1140;SDS011;559;48.628;8.924;2022-08-04T08:45:36;10.60;;;2.70;;
1140;SDS011;559;48.628;8.924;2022-08-04T08:48:25;3.23;;;2.33;;
1140;SDS011;559;48.628;8.924;2022-08-04T08:51:03;3.37;;;2.10;;
1140;SDS011;559;48.628;8.924;2022-08-04T08:54:02;10.03;;;3.73;;
1140;SDS011;559;48.628;8.924;2022-08-04T08:56:54;3.10;;;2.30;;
1140;SDS011;559;48.628;8.924;2022-08-04T08:59:31;3.50;;;2.77;;
1140;SDS011;559;48.628;8.924;2022-08-04T09:02:09;3.17;;;2.90;;
1140;SDS011;559;48.628;8.924;2022-08-04T09:07:52;2.97;;;2.13;;
1140;SDS011;559;48.628;8.924;2022-08-04T09:10:25;4.43;;;3.00;;
1140;SDS011;559;48.628;8.924;2022-08-04T09:12:55;3.17;;;2.47;;
1140;SDS011;559;48.628;8.924;2022-08-04T09:15:28;2.77;;;2.57;;
1140;SDS011;559;48.628;8.924;2022-08-04T09:18:01;5.70;;;4.00;;
1140;SDS011;559;48.628;8.924;2022-08-04T09:20:34;4.40;;;2.23;;
1140;SDS011;559;48.628;8.924;2022-08-04T09:25:50;5.80;;;2.83;;
1140;SDS011;559;48.628;8.924;2022-08-04T09:28:25;2.57;;;2.37;;
1140;SDS011;559;48.628;8.924;2022-08-04T09:30:55;3.53;;;3.23;;
1140;SDS011;559;48.628;8.924;2022-08-04T09:33:27;3.10;;;2.80;;
1140;SDS011;559;48.628;8.924;2022-08-04T09:36:00;2.70;;;2.50;;
1140;SDS011;559;48.628;8.924;2022-08-04T09:38:32;2.97;;;2.50;;
1140;SDS011;559;48.628;8.924;2022-08-04T09:41:01;2.40;;;2.27;;
1140;SDS011;559;48.628;8.924;2022-08-04T09:43:35;2.53;;;2.37;;
1140;SDS011;559;48.628;8.924;2022-08-04T09:46:14;2.50;;;2.30;;
1140;SDS011;559;48.628;8.924;2022-08-04T09:48:46;3.40;;;2.20;;
1140;SDS011;559;48.628;8.924;2022-08-04T09:51:19;5.77;;;3.93;;
1140;SDS011;559;48.628;8.924;2022-08-04T09:53:56;2.43;;;2.23;;
1140;SDS011;559;48.628;8.924;2022-08-04T09:56:29;3.67;;;2.30;;
1140;SDS011;559;48.628;8.924;2022-08-04T09:59:03;4.80;;;2.17;;
1140;SDS011;559;48.628;8.924;2022-08-04T10:01:36;5.43;;;2.60;;
1140;SDS011;559;48.628;8.924;2022-08-04T10:04:05;3.20;;;2.03;;
1140;SDS011;559;48.628;8.924;2022-08-04T10:06:40;2.80;;;1.87;;
1140;SDS011;559;48.628;8.924;2022-08-04T10:09:12;1.57;;;1.47;;
1140;SDS011;559;48.628;8.924;2022-08-04T10:11:51;2.27;;;2.17;;
1140;SDS011;559;48.628;8.924;2022-08-04T10:14:26;3.00;;;1.93;;
1140;SDS011;559;48.628;8.924;2022-08-04T10:17:08;3.90;;;1.40;;
1140;SDS011;559;48.628;8.924;2022-08-04T10:19:50;3.10;;;1.30;;
1140;SDS011;559;48.628;8.924;2022-08-04T10:22:24;4.70;;;4.30;;
1140;SDS011;559;48.628;8.924;2022-08-04T10:24:53;2.57;;;2.00;;
1140;SDS011;559;48.628;8.924;2022-08-04T10:27:29;1.70;;;1.60;;
1140;SDS011;559;48.628;8.924;2022-08-04T10:30:01;2.93;;;2.30;;
1140;SDS011;559;48.628;8.924;2022-08-04T10:32:41;4.70;;;2.47;;
1140;SDS011;559;48.628;8.924;2022-08-04T10:35:10;6.80;;;2.50;;
1140;SDS011;559;48.628;8.924;2022-08-04T10:37:39;2.50;;;1.90;;
1140;SDS011;559;48.628;8.924;2022-08-04T10:40:11;2.20;;;1.80;;
1140;SDS011;559;48.628;8.924;2022-08-04T10:43:03;2.07;;;1.87;;
1140;SDS011;559;48.628;8.924;2022-08-04T10:45:33;1.60;;;1.50;;
1140;SDS011;559;48.628;8.924;2022-08-04T10:50:58;2.00;;;1.80;;
1140;SDS011;559;48.628;8.924;2022-08-04T10:53:28;4.37;;;1.83;;
1140;SDS011;559;48.628;8.924;2022-08-04T10:55:56;2.60;;;2.40;;
1140;SDS011;559;48.628;8.924;2022-08-04T10:58:28;1.50;;;1.40;;
1140;SDS011;559;48.628;8.924;2022-08-04T11:00:58;2.30;;;2.10;;
1140;SDS011;559;48.628;8.924;2022-08-04T11:03:29;2.83;;;2.53;;
1140;SDS011;559;48.628;8.924;2022-08-04T11:06:01;2.47;;;2.30;;
1140;SDS011;559;48.628;8.924;2022-08-04T11:08:28;12.33;;;2.73;;
1140;SDS011;559;48.628;8.924;2022-08-04T11:11:00;17.37;;;3.90;;
1140;SDS011;559;48.628;8.924;2022-08-04T11:13:31;2.20;;;2.00;;
1140;SDS011;559;48.628;8.924;2022-08-04T11:16:01;3.10;;;1.90;;
1140;SDS011;559;48.628;8.924;2022-08-04T11:18:33;6.10;;;2.70;;
1140;SDS011;559;48.628;8.924;2022-08-04T11:21:05;470.13;;;68.43;;
1140;SDS011;559;48.628;8.924;2022-08-04T11:23:36;5.67;;;2.77;;
1140;SDS011;559;48.628;8.924;2022-08-04T11:26:11;1.70;;;1.60;;
1140;SDS011;559;48.628;8.924;2022-08-04T11:28:41;2.80;;;1.70;;
1140;SDS011;559;48.628;8.924;2022-08-04T11:31:13;2.53;;;1.93;;
1140;SDS011;559;48.628;8.924;2022-08-04T11:33:45;3.60;;;1.70;;
1140;SDS011;559;48.628;8.924;2022-08-04T11:36:14;5.00;;;1.90;;
1140;SDS011;559;48.628;8.924;2022-08-04T11:38:46;12.90;;;3.30;;
1140;SDS011;559;48.628;8.924;2022-08-04T11:41:17;9.43;;;3.33;;
1140;SDS011;559;48.628;8.924;2022-08-04T11:43:48;2.37;;;2.17;;
1140;SDS011;559;48.628;8.924;2022-08-04T11:46:17;2.40;;;2.17;;
1140;SDS011;559;48.628;8.924;2022-08-04T11:48:51;5.73;;;2.30;;
1140;SDS011;559;48.628;8.924;2022-08-04T11:51:21;4.33;;;3.17;;
1140;SDS011;559;48.628;8.924;2022-08-04T11:53:48;4.20;;;1.90;;
1140;SDS011;559;48.628;8.924;2022-08-04T11:56:15;2.00;;;1.90;;
1140;SDS011;559;48.628;8.924;2022-08-04T11:58:42;3.13;;;2.10;;
1140;SDS011;559;48.628;8.924;2022-08-04T12:01:10;2.30;;;2.20;;
1140;SDS011;559;48.628;8.924;2022-08-04T12:03:45;1.97;;;1.77;;
1140;SDS011;559;48.628;8.924;2022-08-04T12:06:20;3.07;;;1.90;;
1140;SDS011;559;48.628;8.924;2022-08-04T12:08:53;14.00;;;3.47;;
1140;SDS011;559;48.628;8.924;2022-08-04T12:11:28;2.80;;;1.97;;
1140;SDS011;559;48.628;8.924;2022-08-04T12:14:03;2.37;;;2.17;;
1140;SDS011;559;48.628;8.924;2022-08-04T12:16:37;2.67;;;2.47;;
1140;SDS011;559;48.628;8.924;2022-08-04T12:19:08;5.03;;;2.27;;
1140;SDS011;559;48.628;8.924;2022-08-04T12:21:41;9.00;;;3.00;;
1140;SDS011;559;48.628;8.924;2022-08-04T12:24:13;2.13;;;1.93;;
1140;SDS011;559;48.628;8.924;2022-08-04T12:26:43;4.60;;;2.30;;
1140;SDS011;559;48.628;8.924;2022-08-04T12:29:15;1.77;;;1.67;;
1140;SDS011;559;48.628;8.924;2022-08-04T12:31:44;2.20;;;2.00;;
1140;SDS011;559;48.628;8.924;2022-08-04T12:34:14;4.07;;;2.10;;
1140;SDS011;559;48.628;8.924;2022-08-04T12:36:46;28.43;;;6.77;;
1140;SDS011;559;48.628;8.924;2022-08-04T12:39:19;26.53;;;7.33;;
1140;SDS011;559;48.628;8.924;2022-08-04T12:41:51;5.13;;;2.37;;
1140;SDS011;559;48.628;8.924;2022-08-04T12:44:21;5.17;;;2.23;;
1140;SDS011;559;48.628;8.924;2022-08-04T12:46:47;6.33;;;3.30;;
1140;SDS011;559;48.628;8.924;2022-08-04T12:49:14;8.17;;;2.30;;
1140;SDS011;559;48.628;8.924;2022-08-04T12:51:42;11.00;;;3.30;;
1140;SDS011;559;48.628;8.924;2022-08-04T12:54:11;25.47;;;5.17;;
1140;SDS011;559;48.628;8.924;2022-08-04T12:56:38;2.57;;;2.00;;
1140;SDS011;559;48.628;8.924;2022-08-04T12:59:06;3.93;;;1.93;;
1140;SDS011;559;48.628;8.924;2022-08-04T13:01:33;3.70;;;1.93;;
1140;SDS011;559;48.628;8.924;2022-08-04T13:04:02;2.17;;;1.97;;
1140;SDS011;559;48.628;8.924;2022-08-04T13:06:35;2.30;;;1.80;;
1140;SDS011;559;48.628;8.924;2022-08-04T13:09:03;2.57;;;1.93;;
1140;SDS011;559;48.628;8.924;2022-08-04T13:11:34;2.33;;;2.13;;
1140;SDS011;559;48.628;8.924;2022-08-04T13:14:02;2.53;;;2.33;;
1140;SDS011;559;48.628;8.924;2022-08-04T13:16:29;3.63;;;2.60;;
1140;SDS011;559;48.628;8.924;2022-08-04T13:18:57;4.27;;;2.20;;
1140;SDS011;559;48.628;8.924;2022-08-04T13:21:24;2.40;;;2.13;;
1140;SDS011;559;48.628;8.924;2022-08-04T13:23:54;3.20;;;2.30;;
1140;SDS011;559;48.628;8.924;2022-08-04T13:26:31;2.47;;;2.27;;
1140;SDS011;559;48.628;8.924;2022-08-04T13:29:01;2.80;;;1.93;;
1140;SDS011;559;48.628;8.924;2022-08-04T13:31:30;2.53;;;2.33;;
1140;SDS011;559;48.628;8.924;2022-08-04T13:34:01;2.80;;;2.60;;
1140;SDS011;559;48.628;8.924;2022-08-04T13:36:31;166.23;;;23.60;;
1140;SDS011;559;48.628;8.924;2022-08-04T13:39:00;2.07;;;1.97;;
1140;SDS011;559;48.628;8.924;2022-08-04T13:41:29;5.50;;;2.10;;
1140;SDS011;559;48.628;8.924;2022-08-04T13:43:58;1.90;;;1.80;;
1140;SDS011;559;48.628;8.924;2022-08-04T13:46:26;4.57;;;2.70;;
1140;SDS011;559;48.628;8.924;2022-08-04T13:48:54;5.90;;;2.33;;
1140;SDS011;559;48.628;8.924;2022-08-04T13:51:21;6.40;;;2.47;;
1140;SDS011;559;48.628;8.924;2022-08-04T13:53:53;3.53;;;2.20;;
1140;SDS011;559;48.628;8.924;2022-08-04T13:56:21;26.63;;;6.17;;
1140;SDS011;559;48.628;8.924;2022-08-04T13:58:48;19.17;;;4.27;;
1140;SDS011;559;48.628;8.924;2022-08-04T14:01:22;4.07;;;3.00;;
1140;SDS011;559;48.628;8.924;2022-08-04T14:03:55;7.87;;;2.23;;
1140;SDS011;559;48.628;8.924;2022-08-04T14:06:23;4.00;;;2.33;;
1140;SDS011;559;48.628;8.924;2022-08-04T14:08:52;11.60;;;3.50;;
1140;SDS011;559;48.628;8.924;2022-08-04T14:11:20;4.30;;;2.60;;
1140;SDS011;559;48.628;8.924;2022-08-04T14:13:57;2.10;;;1.90;;
1140;SDS011;559;48.628;8.924;2022-08-04T14:16:25;10.80;;;2.83;;
1140;SDS011;559;48.628;8.924;2022-08-04T14:18:56;2.20;;;2.07;;
1140;SDS011;559;48.628;8.924;2022-08-04T14:21:23;3.10;;;2.03;;
1140;SDS011;559;48.628;8.924;2022-08-04T14:23:51;3.40;;;2.40;;
1140;SDS011;559;48.628;8.924;2022-08-04T14:26:19;12.13;;;3.10;;
1140;SDS011;559;48.628;8.924;2022-08-04T14:28:48;5.33;;;2.50;;
1140;SDS011;559;48.628;8.924;2022-08-04T14:31:16;3.00;;;2.80;;
1140;SDS011;559;48.628;8.924;2022-08-04T14:33:45;3.50;;;2.17;;
1140;SDS011;559;48.628;8.924;2022-08-04T14:36:13;2.67;;;2.33;;
1140;SDS011;559;48.628;8.924;2022-08-04T14:38:42;4.90;;;2.47;;
1140;SDS011;559;48.628;8.924;2022-08-04T14:41:14;4.00;;;2.10;;
1140;SDS011;559;48.628;8.924;2022-08-04T14:43:45;2.53;;;2.33;;
1140;SDS011;559;48.628;8.924;2022-08-04T14:46:13;2.70;;;2.50;;
1140;SDS011;559;48.628;8.924;2022-08-04T14:48:57;5.30;;;2.53;;
1140;SDS011;559;48.628;8.924;2022-08-04T14:51:25;2.77;;;2.57;;
1140;SDS011;559;48.628;8.924;2022-08-04T14:53:53;4.03;;;2.57;;
1140;SDS011;559;48.628;8.924;2022-08-04T14:56:20;2.27;;;2.07;;
1140;SDS011;559;48.628;8.924;2022-08-04T14:58:56;3.07;;;2.63;;
1140;SDS011;559;48.628;8.924;2022-08-04T15:01:24;2.80;;;2.60;;
1140;SDS011;559;48.628;8.924;2022-08-04T15:03:52;2.37;;;2.17;;
1140;SDS011;559;48.628;8.924;2022-08-04T15:06:21;2.97;;;2.77;;
1140;SDS011;559;48.628;8.924;2022-08-04T15:08:49;3.83;;;2.90;;
1140;SDS011;559;48.628;8.924;2022-08-04T15:11:17;2.90;;;2.70;;
1140;SDS011;559;48.628;8.924;2022-08-04T15:13:43;4.20;;;2.60;;
1140;SDS011;559;48.628;8.924;2022-08-04T15:16:10;5.23;;;2.40;;
1140;SDS011;559;48.628;8.924;2022-08-04T15:18:36;2.07;;;1.97;;
1140;SDS011;559;48.628;8.924;2022-08-04T15:21:04;2.97;;;2.77;;
1140;SDS011;559;48.628;8.924;2022-08-04T15:23:32;2.97;;;2.67;;
1140;SDS011;559;48.628;8.924;2022-08-04T15:26:00;4.10;;;2.50;;
1140;SDS011;559;48.628;8.924;2022-08-04T15:28:28;2.60;;;2.20;;
1140;SDS011;559;48.628;8.924;2022-08-04T15:30:56;2.77;;;2.57;;
1140;SDS011;559;48.628;8.924;2022-08-04T15:33:26;3.20;;;2.80;;
1140;SDS011;559;48.628;8.924;2022-08-04T15:36:01;2.83;;;2.60;;
1140;SDS011;559;48.628;8.924;2022-08-04T15:38:39;3.10;;;2.40;;
1140;SDS011;559;48.628;8.924;2022-08-04T15:41:12;3.00;;;2.47;;
1140;SDS011;559;48.628;8.924;2022-08-04T15:43:45;2.40;;;2.20;;
1140;SDS011;559;48.628;8.924;2022-08-04T15:46:19;2.97;;;2.30;;
1140;SDS011;559;48.628;8.924;2022-08-04T15:49:16;3.57;;;2.43;;
1140;SDS011;559;48.628;8.924;2022-08-04T15:51:45;1.93;;;1.83;;
1140;SDS011;559;48.628;8.924;2022-08-04T15:54:20;2.93;;;2.63;;
1140;SDS011;559;48.628;8.924;2022-08-04T15:56:49;2.33;;;1.83;;
1140;SDS011;559;48.628;8.924;2022-08-04T15:59:18;2.90;;;2.70;;
1140;SDS011;559;48.628;8.924;2022-08-04T16:05:33;4.43;;;2.57;;
1140;SDS011;559;48.628;8.924;2022-08-04T16:08:10;4.03;;;2.60;;
1140;SDS011;559;48.628;8.924;2022-08-04T16:10:40;2.93;;;2.40;;
1140;SDS011;559;48.628;8.924;2022-08-04T16:13:08;2.50;;;2.30;;